createdAt,value
2023-09-17T00:02:23.545Z,99738.63
2023-09-17T00:05:26.146Z,99732.59
2023-09-17T00:08:28.402Z,99731.50
2023-09-17T00:11:30.491Z,99741.94
2023-09-17T00:14:32.561Z,99741.78
2023-09-17T00:17:34.660Z,99732.47
2023-09-17T00:20:36.564Z,99730.28
2023-09-17T00:23:38.451Z,99733.84
2023-09-17T00:26:40.455Z,99736.47
2023-09-17T00:29:42.344Z,99730.28
2023-09-17T00:32:44.911Z,99734.53
2023-09-17T00:35:46.759Z,99731.50
2023-09-17T00:38:48.556Z,99734.94
2023-09-17T00:41:50.455Z,99729.72
2023-09-17T00:44:52.389Z,99727.50
2023-09-17T00:47:55.802Z,99728.09
2023-09-17T00:50:57.866Z,99719.72
2023-09-17T00:54:00.434Z,99723.09
2023-09-17T00:57:04.153Z,99725.53
2023-09-17T01:00:10.991Z,99717.06
2023-09-17T01:03:13.876Z,99717.63
2023-09-17T01:06:16.062Z,99723.25
2023-09-17T01:09:19.454Z,99716.66
2023-09-17T01:12:21.886Z,99713.91
2023-09-17T01:15:24.291Z,99717.41
2023-09-17T01:18:28.867Z,99712.50
2023-09-17T01:21:37.379Z,99718.25
2023-09-17T01:24:51.448Z,99722.22
2023-09-17T01:27:53.444Z,99713.88
2023-09-17T01:30:55.435Z,99718.53
2023-09-17T01:33:57.631Z,99718.66
2023-09-17T01:37:03.834Z,99728.69
2023-09-17T01:40:15.203Z,99723.47
2023-09-17T01:43:21.582Z,99724.84
2023-09-17T01:46:24.236Z,99725.69
2023-09-17T01:49:26.968Z,99720.41
2023-09-17T01:52:33.745Z,99714.94
2023-09-17T01:55:37.012Z,99702.06
2023-09-17T01:58:39.475Z,99712.09
2023-09-17T02:01:43.488Z,99708.13
2023-09-17T02:04:45.430Z,99704.03
2023-09-17T02:07:48.267Z,99707.03
2023-09-17T02:10:50.178Z,99700.59
2023-09-17T02:13:52.570Z,99712.28
2023-09-17T02:16:55.810Z,99713.25
2023-09-17T02:19:57.878Z,99711.72
2023-09-17T02:22:59.768Z,99713.22
2023-09-17T02:26:01.786Z,99699.75
2023-09-17T02:29:05.226Z,99704.03
2023-09-17T02:32:07.514Z,99703.47
2023-09-17T02:35:09.746Z,99707.88
2023-09-17T02:38:11.877Z,99708.03
2023-09-17T02:41:13.762Z,99708.28
2023-09-17T02:44:15.645Z,99706.97
2023-09-17T02:47:17.685Z,99701.47
2023-09-17T02:50:20.972Z,99695.56
2023-09-17T02:53:23.021Z,99689.66
2023-09-17T02:56:26.056Z,99697.75
2023-09-17T02:59:28.094Z,99698.16
2023-09-17T03:02:30.172Z,99705.31
2023-09-17T03:05:32.119Z,99703.41
2023-09-17T03:08:34.541Z,99695.56
2023-09-17T03:11:36.520Z,99700.25
2023-09-17T03:14:40.056Z,99700.34
2023-09-17T03:17:45.567Z,99702.56
2023-09-17T03:20:50.416Z,99701.72
2023-09-17T03:23:52.427Z,99701.44
2023-09-17T03:26:54.986Z,99702.28
2023-09-17T03:29:57.438Z,99696.66
2023-09-17T03:33:04.877Z,99692.28
2023-09-17T03:36:14.085Z,99699.00
2023-09-17T03:39:16.254Z,99706.16
2023-09-17T03:42:18.156Z,99705.84
2023-09-17T03:45:20.128Z,99703.09
2023-09-17T03:48:22.905Z,99703.91
2023-09-17T03:51:25.140Z,99701.00
2023-09-17T03:54:28.117Z,99700.56
2023-09-17T03:57:30.431Z,99704.97
2023-09-17T04:00:32.924Z,99708.03
2023-09-17T04:03:37.891Z,99710.97
2023-09-17T04:06:40.039Z,99711.22
2023-09-17T04:09:44.044Z,99714.91
2023-09-17T04:12:46.363Z,99712.00
2023-09-17T04:15:50.126Z,99714.53
2023-09-17T04:18:52.027Z,99718.19
2023-09-17T04:21:53.926Z,99712.91
2023-09-17T04:24:56.645Z,99719.22
2023-09-17T04:27:58.743Z,99720.16
2023-09-17T04:31:00.658Z,99717.22
2023-09-17T04:34:02.618Z,99716.38
2023-09-17T04:37:05.315Z,99714.81
2023-09-17T04:40:12.692Z,99721.91
2023-09-17T04:43:16.498Z,99742.41
2023-09-17T04:46:18.534Z,99750.34
2023-09-17T04:49:26.131Z,99740.69
2023-09-17T04:52:28.109Z,99753.19
2023-09-17T04:55:30.213Z,99759.31
2023-09-17T04:58:32.093Z,99757.44
2023-09-17T05:01:36.476Z,99769.88
2023-09-17T05:04:38.559Z,99764.50
2023-09-17T05:07:43.524Z,99769.41
2023-09-17T05:10:46.086Z,99765.97
2023-09-17T05:13:48.309Z,99773.09
2023-09-17T05:16:50.371Z,99766.25
2023-09-17T05:19:52.534Z,99768.25
2023-09-17T05:22:54.597Z,99777.97
2023-09-17T05:25:56.594Z,99782.81
2023-09-17T05:29:02.044Z,99791.06
2023-09-17T05:32:04.833Z,99785.22
2023-09-17T05:35:08.529Z,99799.03
2023-09-17T05:38:10.547Z,99795.25
2023-09-17T05:41:13.293Z,99794.47
2023-09-17T05:44:15.286Z,99797.69
2023-09-17T05:47:17.577Z,99794.81
2023-09-17T05:50:19.932Z,99799.09
2023-09-17T05:53:22.285Z,99800.50
2023-09-17T05:56:24.179Z,99795.25
2023-09-17T05:59:26.658Z,99797.16
2023-09-17T06:02:28.605Z,99793.19
2023-09-17T06:05:30.534Z,99798.16
2023-09-17T06:08:32.624Z,99804.31
2023-09-17T06:11:34.873Z,99807.81
2023-09-17T06:14:36.882Z,99802.69
2023-09-17T06:17:39.265Z,99800.63
2023-09-17T06:20:41.338Z,99810.63
2023-09-17T06:23:43.398Z,99807.59
2023-09-17T06:26:45.322Z,99807.16
2023-09-17T06:29:47.501Z,99813.91
2023-09-17T06:32:50.018Z,99812.09
2023-09-17T06:35:52.056Z,99815.97
2023-09-17T06:38:53.904Z,99820.66
2023-09-17T06:41:55.963Z,99820.50
2023-09-17T06:44:57.860Z,99824.50
2023-09-17T06:47:59.985Z,99820.38
2023-09-17T06:51:02.853Z,99834.72
2023-09-17T06:54:04.884Z,99835.63
2023-09-17T06:57:06.708Z,99833.19
2023-09-17T07:00:09.021Z,99838.28
2023-09-17T07:03:11.023Z,99841.47
2023-09-17T07:06:12.933Z,99840.34
2023-09-17T07:09:14.800Z,99834.59
2023-09-17T07:12:17.635Z,99840.53
2023-09-17T07:15:21.377Z,99844.09
2023-09-17T07:18:23.809Z,99833.06
2023-09-17T07:21:25.817Z,99841.63
2023-09-17T07:24:27.664Z,99843.72
2023-09-17T07:27:30.834Z,99852.75
2023-09-17T07:30:36.015Z,99846.13
2023-09-17T07:33:40.357Z,99843.00
2023-09-17T07:36:42.394Z,99843.44
2023-09-17T07:39:46.423Z,99836.19
2023-09-17T07:42:48.850Z,99830.09
2023-09-17T07:45:50.739Z,99839.06
2023-09-17T07:48:52.780Z,99844.75
2023-09-17T07:51:54.800Z,99839.06
2023-09-17T07:54:56.631Z,99839.41
2023-09-17T07:57:58.641Z,99848.66
2023-09-17T08:01:00.593Z,99855.72
2023-09-17T08:04:02.597Z,99862.13
2023-09-17T08:07:05.599Z,99865.84
2023-09-17T08:10:08.041Z,99861.19
2023-09-17T08:13:10.269Z,99860.47
2023-09-17T08:16:12.203Z,99857.25
2023-09-17T08:19:14.195Z,99855.38
2023-09-17T08:22:16.739Z,99860.91
2023-09-17T08:25:19.653Z,99855.91
2023-09-17T08:28:24.007Z,99854.00
2023-09-17T08:31:26.846Z,99853.69
2023-09-17T08:34:28.890Z,99856.19
2023-09-17T08:37:31.215Z,99857.75
2023-09-17T08:40:35.945Z,99856.44
2023-09-17T08:43:40.367Z,99856.41
2023-09-17T08:46:44.228Z,99857.91
2023-09-17T08:49:46.177Z,99857.16
2023-09-17T08:52:55.745Z,99860.81
2023-09-17T08:56:01.258Z,99861.75
2023-09-17T08:59:10.374Z,99860.94
2023-09-17T09:02:21.570Z,99868.13
2023-09-17T09:05:26.636Z,99859.44
2023-09-17T09:08:30.081Z,99862.03
2023-09-17T09:11:35.914Z,99859.63
2023-09-17T09:14:37.851Z,99857.75
2023-09-17T09:17:40.448Z,99864.63
2023-09-17T09:20:43.521Z,99866.69
2023-09-17T09:23:45.694Z,99856.97
2023-09-17T09:26:48.454Z,99860.31
2023-09-17T09:29:50.384Z,99859.66
2023-09-17T09:32:52.727Z,99857.81
2023-09-17T09:35:56.125Z,99856.41
2023-09-17T09:38:58.370Z,99862.19
2023-09-17T09:42:00.871Z,99861.00
2023-09-17T09:45:04.279Z,99866.34
2023-09-17T09:48:14.348Z,99869.81
2023-09-17T09:51:19.834Z,99865.22
2023-09-17T09:54:21.699Z,99860.63
2023-09-17T09:57:26.648Z,99862.63
2023-09-17T10:00:30.391Z,99851.28
2023-09-17T10:03:33.078Z,99857.31
2023-09-17T10:06:37.381Z,99852.47
2023-09-17T10:09:40.131Z,99861.19
2023-09-17T10:12:42.179Z,99847.19
2023-09-17T10:15:45.035Z,99851.13
2023-09-17T10:18:47.763Z,99845.47
2023-09-17T10:21:51.109Z,99848.16
2023-09-17T10:24:53.610Z,99841.16
2023-09-17T10:27:56.736Z,99837.16
2023-09-17T10:31:00.421Z,99840.63
2023-09-17T10:34:04.888Z,99843.78
2023-09-17T10:37:08.003Z,99845.59
2023-09-17T10:40:11.264Z,99845.91
2023-09-17T10:43:13.408Z,99839.91
2023-09-17T10:46:17.110Z,99836.41
2023-09-17T10:49:20.011Z,99839.56
2023-09-17T10:52:22.855Z,99835.16
2023-09-17T10:55:29.142Z,99837.72
2023-09-17T10:58:38.336Z,99838.34
2023-09-17T11:01:43.724Z,99831.25
2023-09-17T11:04:47.133Z,99834.88
2023-09-17T11:07:54.114Z,99835.19
2023-09-17T11:10:56.471Z,99828.66
2023-09-17T11:13:58.815Z,99829.00
2023-09-17T11:17:02.085Z,99838.06
2023-09-17T11:20:13.862Z,99834.34
2023-09-17T11:23:16.318Z,99816.88
2023-09-17T11:26:26.215Z,99821.66
2023-09-17T11:29:45.258Z,99825.56
2023-09-17T11:32:54.677Z,99819.38
2023-09-17T11:35:57.935Z,99811.28
2023-09-17T11:39:05.010Z,99807.13
2023-09-17T11:42:14.672Z,99806.22
2023-09-17T11:45:17.039Z,99800.66
2023-09-17T11:48:19.046Z,99798.09
2023-09-17T11:51:22.400Z,99791.75
2023-09-17T11:54:31.843Z,99801.94
2023-09-17T11:57:35.124Z,99794.09
2023-09-17T12:00:37.112Z,99792.66
2023-09-17T12:03:39.136Z,99787.94
2023-09-17T12:06:47.414Z,99774.72
2023-09-17T12:09:58.771Z,99777.91
2023-09-17T12:13:00.833Z,99775.03
2023-09-17T12:16:02.743Z,99773.16
2023-09-17T12:19:17.539Z,99773.09
2023-09-17T12:22:20.934Z,99776.63
2023-09-17T12:25:22.802Z,99777.38
2023-09-17T12:28:28.984Z,99770.59
2023-09-17T12:31:31.520Z,99774.34
2023-09-17T12:34:37.467Z,99767.59
2023-09-17T12:37:39.854Z,99770.09
2023-09-17T12:40:42.494Z,99765.53
2023-09-17T12:43:44.609Z,99763.22
2023-09-17T12:46:47.686Z,99764.66
2023-09-17T12:49:49.703Z,99769.84
2023-09-17T12:52:52.312Z,99755.91
2023-09-17T12:55:58.553Z,99754.75
2023-09-17T12:59:02.140Z,99751.00
2023-09-17T13:02:05.585Z,99747.31
2023-09-17T13:05:09.254Z,99750.13
2023-09-17T13:08:11.361Z,99742.19
2023-09-17T13:11:13.461Z,99738.41
2023-09-17T13:14:15.506Z,99746.94
2023-09-17T13:17:18.395Z,99743.03
2023-09-17T13:20:21.002Z,99747.72
2023-09-17T13:23:23.681Z,99749.00
2023-09-17T13:26:27.333Z,99738.53
2023-09-17T13:29:43.170Z,99735.69
2023-09-17T13:32:48.609Z,99739.19
2023-09-17T13:35:54.755Z,99736.19
2023-09-17T13:38:57.565Z,99727.84
2023-09-17T13:41:59.596Z,99721.47
2023-09-17T13:45:01.503Z,99728.50
2023-09-17T13:48:03.586Z,99719.34
2023-09-17T13:51:05.737Z,99717.97
2023-09-17T13:54:07.712Z,99716.03
2023-09-17T13:57:09.750Z,99709.84
2023-09-17T14:00:15.293Z,99704.47
2023-09-17T14:03:17.810Z,99708.44
2023-09-17T14:06:19.858Z,99706.16
2023-09-17T14:09:22.301Z,99716.44
2023-09-17T14:12:26.454Z,99710.69
2023-09-17T14:15:28.615Z,99719.72
2023-09-17T14:18:30.533Z,99710.56
2023-09-17T14:21:38.617Z,99706.75
2023-09-17T14:24:40.593Z,99708.09
2023-09-17T14:27:42.589Z,99707.59
2023-09-17T14:30:45.027Z,99709.44
2023-09-17T14:33:46.900Z,99713.63
2023-09-17T14:36:49.021Z,99713.25
2023-09-17T14:39:52.218Z,99710.78
2023-09-17T14:42:54.149Z,99711.28
2023-09-17T14:45:56.171Z,99708.47
2023-09-17T14:48:58.012Z,99712.75
2023-09-17T14:51:59.903Z,99714.28
2023-09-17T14:55:05.378Z,99712.66
2023-09-17T14:58:07.426Z,99715.81
2023-09-17T15:01:12.036Z,99719.00
2023-09-17T15:04:21.301Z,99714.13
2023-09-17T15:07:23.636Z,99710.66
2023-09-17T15:10:25.633Z,99711.03
2023-09-17T15:13:27.445Z,99713.91
2023-09-17T15:16:29.331Z,99700.25
2023-09-17T15:19:31.431Z,99705.56
2023-09-17T15:22:34.745Z,99711.59
2023-09-17T15:25:36.849Z,99701.50
2023-09-17T15:28:39.023Z,99709.41
2023-09-17T15:31:41.396Z,99707.97
2023-09-17T15:34:44.364Z,99710.59
2023-09-17T15:37:47.756Z,99709.03
2023-09-17T15:40:53.159Z,99695.41
2023-09-17T15:43:55.617Z,99694.75
2023-09-17T15:46:59.245Z,99697.63
2023-09-17T15:50:01.421Z,99702.78
2023-09-17T15:53:03.580Z,99695.63
2023-09-17T15:56:05.736Z,99696.34
2023-09-17T15:59:07.819Z,99695.72
2023-09-17T16:02:10.205Z,99697.91
2023-09-17T16:05:12.771Z,99703.44
2023-09-17T16:08:15.243Z,99708.44
2023-09-17T16:11:17.235Z,99710.66
2023-09-17T16:14:19.241Z,99708.19
2023-09-17T16:17:21.198Z,99709.91
2023-09-17T16:20:23.909Z,99712.22
2023-09-17T16:23:25.892Z,99712.59
2023-09-17T16:26:27.756Z,99708.38
2023-09-17T16:29:29.676Z,99716.25
2023-09-17T16:32:32.673Z,99704.28
2023-09-17T16:35:34.661Z,99701.22
2023-09-17T16:38:36.571Z,99697.09
2023-09-17T16:41:38.575Z,99699.75
2023-09-17T16:44:40.520Z,99698.44
2023-09-17T16:47:42.592Z,99694.34
2023-09-17T16:50:44.879Z,99697.31
2023-09-17T16:53:46.947Z,99700.94
2023-09-17T16:56:48.952Z,99704.06
2023-09-17T16:59:50.852Z,99697.66
2023-09-17T17:02:53.213Z,99697.34
2023-09-17T17:05:55.580Z,99700.47
2023-09-17T17:08:57.618Z,99709.66
2023-09-17T17:11:59.665Z,99706.81
2023-09-17T17:15:01.607Z,99708.78
2023-09-17T17:18:03.696Z,99715.97
2023-09-17T17:21:05.651Z,99714.97
2023-09-17T17:24:08.383Z,99712.19
2023-09-17T17:27:10.276Z,99724.47
2023-09-17T17:30:12.765Z,99738.91
2023-09-17T17:33:14.733Z,99732.78
2023-09-17T17:36:17.002Z,99734.41
2023-09-17T17:39:19.111Z,99738.50
2023-09-17T17:42:20.994Z,99738.28
2023-09-17T17:45:23.820Z,99744.84
2023-09-17T17:48:27.354Z,99738.94
2023-09-17T17:51:29.578Z,99744.34
2023-09-17T17:54:31.781Z,99748.53
2023-09-17T17:57:33.815Z,99754.09
2023-09-17T18:00:35.701Z,99748.94
2023-09-17T18:03:38.979Z,99753.47
2023-09-17T18:06:41.047Z,99766.38
2023-09-17T18:09:43.590Z,99755.56
2023-09-17T18:12:45.714Z,99769.63
2023-09-17T18:15:47.921Z,99770.75
2023-09-17T18:18:50.092Z,99767.97
2023-09-17T18:21:52.382Z,99770.75
2023-09-17T18:24:54.309Z,99768.94
2023-09-17T18:27:56.493Z,99763.88
2023-09-17T18:30:58.810Z,99769.13
2023-09-17T18:34:00.821Z,99768.44
2023-09-17T18:37:03.758Z,99764.31
2023-09-17T18:40:06.598Z,99762.66
2023-09-17T18:43:08.634Z,99770.41
2023-09-17T18:46:10.988Z,99765.28
2023-09-17T18:49:18.364Z,99767.56
2023-09-17T18:52:20.481Z,99765.69
2023-09-17T18:55:22.622Z,99762.50
2023-09-17T18:58:24.871Z,99772.59
2023-09-17T19:01:27.183Z,99768.09
2023-09-17T19:04:30.473Z,99766.22
2023-09-17T19:07:33.354Z,99769.44
2023-09-17T19:10:36.364Z,99761.22
2023-09-17T19:13:38.567Z,99768.41
2023-09-17T19:16:40.663Z,99764.72
2023-09-17T19:19:43.202Z,99768.22
2023-09-17T19:22:45.369Z,99771.44
2023-09-17T19:25:47.517Z,99768.28
2023-09-17T19:28:50.221Z,99769.81
2023-09-17T19:31:52.565Z,99769.50
2023-09-17T19:34:56.645Z,99771.16
2023-09-17T19:37:58.803Z,99770.84
2023-09-17T19:41:01.523Z,99774.97
2023-09-17T19:44:03.753Z,99770.25
2023-09-17T19:47:06.728Z,99778.81
2023-09-17T19:50:09.234Z,99768.16
2023-09-17T19:53:11.303Z,99765.38
2023-09-17T19:56:13.213Z,99776.97
2023-09-17T19:59:15.888Z,99780.03
2023-09-17T20:02:18.225Z,99770.84
2023-09-17T20:05:20.452Z,99767.53
2023-09-17T20:08:22.446Z,99769.72
2023-09-17T20:11:24.407Z,99775.13
2023-09-17T20:14:26.709Z,99770.03
2023-09-17T20:17:29.801Z,99769.56
2023-09-17T20:20:32.308Z,99772.72
2023-09-17T20:23:40.002Z,99773.16
2023-09-17T20:26:45.568Z,99777.28
2023-09-17T20:29:47.696Z,99778.66
2023-09-17T20:32:51.650Z,99776.31
2023-09-17T20:35:53.902Z,99778.56
2023-09-17T20:38:57.731Z,99782.97
2023-09-17T20:41:59.708Z,99770.31
2023-09-17T20:45:01.668Z,99766.19
2023-09-17T20:48:03.965Z,99768.97
2023-09-17T20:51:05.925Z,99762.06
2023-09-17T20:54:07.859Z,99769.13
2023-09-17T20:57:09.711Z,99767.09
2023-09-17T21:00:12.291Z,99770.69
2023-09-17T21:03:15.730Z,99771.94
2023-09-17T21:06:17.775Z,99767.53
2023-09-17T21:09:27.522Z,99779.13
2023-09-17T21:12:29.886Z,99774.16
2023-09-17T21:15:31.859Z,99785.63
2023-09-17T21:18:33.815Z,99786.88
2023-09-17T21:21:36.144Z,99786.06
2023-09-17T21:24:38.950Z,99777.81
2023-09-17T21:27:40.957Z,99777.13
2023-09-17T21:30:44.973Z,99769.59
2023-09-17T21:33:46.814Z,99766.84
2023-09-17T21:36:50.670Z,99768.06
2023-09-17T21:39:52.568Z,99762.56
2023-09-17T21:42:54.546Z,99764.03
2023-09-17T21:45:56.464Z,99760.31
2023-09-17T21:48:58.431Z,99761.59
2023-09-17T21:52:00.364Z,99751.13
2023-09-17T21:55:02.234Z,99749.50
2023-09-17T21:58:04.255Z,99746.19
2023-09-17T22:01:06.193Z,99747.53
2023-09-17T22:04:08.209Z,99745.88
2023-09-17T22:07:12.961Z,99745.59
2023-09-17T22:10:16.521Z,99745.38
2023-09-17T22:13:19.697Z,99747.16
2023-09-17T22:16:21.655Z,99749.59
2023-09-17T22:19:23.530Z,99746.88
2023-09-17T22:22:25.602Z,99746.56
2023-09-17T22:25:27.551Z,99749.03
2023-09-17T22:28:29.409Z,99747.66
2023-09-17T22:31:31.372Z,99747.16
2023-09-17T22:34:33.359Z,99757.03
2023-09-17T22:37:36.809Z,99750.69
2023-09-17T22:40:42.648Z,99752.63
2023-09-17T22:43:45.283Z,99751.94
2023-09-17T22:46:47.185Z,99742.31
2023-09-17T22:49:49.235Z,99746.56
2023-09-17T22:52:51.060Z,99748.91
2023-09-17T22:55:52.983Z,99750.84
2023-09-17T22:58:55.167Z,99749.50
2023-09-17T23:01:57.359Z,99750.16
2023-09-17T23:04:59.364Z,99751.72
2023-09-17T23:08:01.711Z,99751.47
2023-09-17T23:11:06.213Z,99745.69
2023-09-17T23:14:09.648Z,99757.97
2023-09-17T23:17:11.954Z,99756.75
2023-09-17T23:20:14.232Z,99759.78
2023-09-17T23:23:16.563Z,99770.50
2023-09-17T23:26:18.656Z,99765.31
2023-09-17T23:29:20.825Z,99764.97
2023-09-17T23:32:22.837Z,99760.41
2023-09-17T23:35:25.379Z,99759.75
2023-09-17T23:38:31.457Z,99755.22
2023-09-17T23:41:33.611Z,99750.69
2023-09-17T23:44:35.632Z,99748.66
2023-09-17T23:47:37.697Z,99751.81
2023-09-17T23:50:42.042Z,99747.72
2023-09-17T23:53:43.940Z,99748.91
2023-09-17T23:56:45.999Z,99747.53
2023-09-17T23:59:48.037Z,99751.69
